Weather History for Flippin, AR

Change the Weather History Date:

Saturday, March 8, 2014

  Actual Average Record
Temperature  
Mean Temperature 42 °F -  
Max Temperature 55 °F 54 °F 75 °F (2003)
Min Temperature 30 °F 33 °F 21 °F (2008)
Degree Days  
Heating Degree Days 22    
Moisture  
Dew Point 31 °F    
Average Humidity 65    
Maximum Humidity 80    
Minimum Humidity 47    
Precipitation  
Precipitation 0.01 in - - ()
Sea Level Pressure  
Sea Level Pressure 30.13 in    
Wind  
Wind Speed 4 mph (North)    
Max Wind Speed 14 mph    
Max Gust Speed 21 mph    
Visibility 9 miles    
Events      
Averages and records for this station are not official NWS values.
T = Trace of Precipitation, MM = Missing Value Source: NWS Daily Summary

Daily Weather History Graph

Daily Weather History Graph

Search for Another Location

Airport:

Trip Planner

Search our weather history database for the weather conditions in past years. The results will help you decide how hot, cold, wet, or windy it might be!

Date:

Astronomy

Mar. 08, 2014 Rise Set
Actual Time 6:31 AM CST 6:11 PM CST
Civil Twilight 6:05 AM CST 6:37 PM CST
Nautical Twilight 5:35 AM CST 7:07 PM CST
Astronomical Twilight 5:05 AM CST 7:37 PM CST
Moon 11:23 AM CST (3/8) 12:59 AM CST (3/8)
Length of Visible Light 12h 31m
Length of Day
11h 40m
First Quarter, 52% of the Moon is Illuminated
Mar 8
First Quarter
Mar 16
Full
Mar 23
Last Quarter
Mar 30
New
Apr 7
First Quarter

Hourly Weather History & Observations

Time (CST) Temp. Windchill Dew Point Humidity Pressure Visibility Wind Dir Wind Speed Gust Speed Precip Events Conditions
12:15 AM 42.8 °F - 28.4 °F 57% 29.99 in 10.0 mi Calm Calm - N/A   Clear
12:35 AM 41.0 °F - 28.4 °F 61% 29.99 in 10.0 mi Calm Calm - N/A   Clear
12:55 AM 41.0 °F 39.0 °F 28.4 °F 61% 29.99 in 10.0 mi NNE 3.5 mph - N/A   Clear
1:15 AM 42.8 °F - 28.4 °F 57% 30.00 in 10.0 mi Calm Calm - N/A   Clear
1:35 AM 37.4 °F - 28.4 °F 70% 30.00 in 10.0 mi Calm Calm - N/A   Clear
1:55 AM 37.4 °F 34.9 °F 26.6 °F 65% 30.00 in 10.0 mi NNE 3.5 mph - N/A   Clear
2:15 AM 37.4 °F - 26.6 °F 65% 30.01 in 10.0 mi Calm Calm - N/A   Clear
2:35 AM 37.4 °F - 28.4 °F 70% 30.01 in 10.0 mi Calm Calm - N/A   Clear
2:55 AM 35.6 °F - 26.6 °F 70% 30.01 in 10.0 mi Calm Calm - 0.01 in   Clear
3:15 AM 33.8 °F - 26.6 °F 75% 30.00 in 10.0 mi Calm Calm - N/A   Clear
3:35 AM 33.8 °F - 26.6 °F 75% 30.00 in 10.0 mi Calm Calm - N/A   Clear
3:55 AM 33.8 °F - 26.6 °F 75% 30.01 in 10.0 mi Calm Calm - N/A   Clear
4:15 AM 33.8 °F - 26.6 °F 75% 30.01 in 10.0 mi Calm Calm - N/A   Clear
4:35 AM 35.6 °F - 26.6 °F 70% 30.01 in 10.0 mi Calm Calm - N/A   Clear
4:55 AM 35.6 °F - 26.6 °F 70% 30.01 in 10.0 mi Calm Calm - N/A   Clear
5:15 AM 33.8 °F 29.6 °F 26.6 °F 75% 30.02 in 10.0 mi NNE 4.6 mph - N/A   Clear
5:35 AM 33.8 °F 30.8 °F 26.6 °F 75% 30.03 in 10.0 mi North 3.5 mph - N/A   Clear
5:55 AM 33.8 °F - 26.6 °F 75% 30.04 in 10.0 mi Calm Calm - N/A   Clear
6:15 AM 30.2 °F 26.7 °F 24.8 °F 80% 30.04 in 10.0 mi SW 3.5 mph - N/A   Clear
6:35 AM 30.2 °F - 24.8 °F 80% 30.06 in 9.0 mi Calm Calm - N/A   Clear
6:55 AM 33.8 °F 29.6 °F 26.6 °F 75% 30.06 in 10.0 mi SSW 4.6 mph - N/A   Clear
7:15 AM 33.8 °F 30.8 °F 26.6 °F 75% 30.07 in 9.0 mi West 3.5 mph - N/A   Clear
7:35 AM 35.6 °F 32.8 °F 28.4 °F 75% 30.08 in 9.0 mi WSW 3.5 mph - N/A   Clear
7:55 AM 37.4 °F - 30.2 °F 75% 30.08 in 10.0 mi Calm Calm - N/A   Clear
8:15 AM 42.8 °F - 32.0 °F 66% 30.08 in 10.0 mi Calm Calm - N/A   Clear
8:35 AM 42.8 °F - 30.2 °F 61% 30.10 in 10.0 mi Calm Calm - N/A   Clear
8:55 AM 44.6 °F - 33.8 °F 66% 30.10 in 10.0 mi Calm Calm - N/A   Clear
9:15 AM 44.6 °F 40.7 °F 33.8 °F 66% 30.11 in 10.0 mi NNE 6.9 mph - N/A   Clear
9:35 AM 46.4 °F 42.9 °F 33.8 °F 62% 30.11 in 10.0 mi NE 6.9 mph - N/A   Clear
9:55 AM 50.0 °F - 35.6 °F 58% 30.12 in 10.0 mi NNE 6.9 mph - N/A   Partly Cloudy
10:15 AM 51.8 °F - 33.8 °F 50% 30.12 in 10.0 mi North 9.2 mph - N/A   Scattered Clouds
10:35 AM 51.8 °F - 33.8 °F 50% 30.13 in 10.0 mi NNW 10.4 mph - N/A   Mostly Cloudy
10:55 AM 51.8 °F - 33.8 °F 50% 30.12 in 10.0 mi North 8.1 mph - N/A   Scattered Clouds
11:15 AM 51.8 °F - 33.8 °F 50% 30.12 in 10.0 mi North 8.1 mph - N/A   Partly Cloudy
11:35 AM 53.6 °F - 33.8 °F 47% 30.12 in 10.0 mi NNW 8.1 mph - N/A   Clear
11:55 AM 55.4 °F - 35.6 °F 47% 30.12 in 10.0 mi NNW 6.9 mph - N/A   Clear
12:15 PM 55.4 °F - 35.6 °F 47% 30.12 in 10.0 mi NNW 8.1 mph - N/A   Clear
12:35 PM 55.4 °F - 35.6 °F 47% 30.10 in 10.0 mi North 9.2 mph - N/A   Clear
12:55 PM 55.4 °F - 35.6 °F 47% 30.13 in 10.0 mi NW 11.5 mph - N/A   Clear
1:15 PM 53.6 °F - 37.4 °F 54% 30.14 in 10.0 mi NNW 12.7 mph - N/A   Clear
1:35 PM 53.6 °F - 37.4 °F 54% 30.14 in 10.0 mi NNW 10.4 mph - N/A   Partly Cloudy
1:55 PM 53.6 °F - 37.4 °F 54% 30.14 in 10.0 mi North 13.8 mph - N/A   Partly Cloudy
2:15 PM 53.6 °F - 37.4 °F 54% 30.13 in 10.0 mi NNW 10.4 mph 17.3 mph N/A   Partly Cloudy
2:35 PM 53.6 °F - 37.4 °F 54% 30.13 in 9.0 mi North 10.4 mph - N/A   Clear
2:55 PM 50.0 °F - 35.6 °F 58% 30.14 in 9.0 mi North 11.5 mph - N/A   Partly Cloudy
3:15 PM 48.2 °F - 35.6 °F 62% 30.15 in 8.0 mi North 12.7 mph 20.7 mph N/A   Mostly Cloudy
3:35 PM 48.2 °F - 35.6 °F 62% 30.15 in 7.0 mi North 10.4 mph 16.1 mph N/A   Overcast
3:55 PM 46.4 °F 40.7 °F 33.8 °F 62% 30.16 in 7.0 mi NNW 12.7 mph - N/A   Overcast
4:15 PM 46.4 °F 42.4 °F 33.8 °F 62% 30.17 in 7.0 mi North 8.1 mph - N/A   Mostly Cloudy
4:35 PM 44.6 °F 38.4 °F 33.8 °F 66% 30.18 in 8.0 mi North 12.7 mph - N/A   Mostly Cloudy
4:55 PM 44.6 °F 38.8 °F 32.0 °F 61% 30.18 in 9.0 mi North 11.5 mph 16.1 mph N/A   Overcast
5:15 PM 44.6 °F 39.2 °F 32.0 °F 61% 30.19 in 9.0 mi North 10.4 mph 18.4 mph N/A   Scattered Clouds
5:35 PM 42.8 °F 37.5 °F 32.0 °F 66% 30.19 in 9.0 mi North 9.2 mph - N/A   Mostly Cloudy
5:55 PM 42.8 °F 37.5 °F 30.2 °F 61% 30.20 in 8.0 mi North 9.2 mph - N/A   Mostly Cloudy
6:15 PM 41.0 °F 35.8 °F 30.2 °F 65% 30.21 in 7.0 mi North 8.1 mph - N/A   Mostly Cloudy
6:35 PM 41.0 °F 35.8 °F 30.2 °F 65% 30.21 in 7.0 mi North 8.1 mph - N/A   Mostly Cloudy
6:55 PM 39.2 °F 35.0 °F 30.2 °F 70% 30.23 in 7.0 mi NNW 5.8 mph - N/A   Scattered Clouds
7:15 PM 39.2 °F 34.2 °F 30.2 °F 70% 30.25 in 7.0 mi NNW 6.9 mph - N/A   Partly Cloudy
7:35 PM 39.2 °F 34.2 °F 30.2 °F 70% 30.26 in 8.0 mi NNW 6.9 mph - N/A   Partly Cloudy
7:55 PM 39.2 °F 35.9 °F 30.2 °F 70% 30.27 in 8.0 mi North 4.6 mph - N/A   Clear
8:15 PM 39.2 °F 35.0 °F 30.2 °F 70% 30.28 in 7.0 mi North 5.8 mph - N/A   Partly Cloudy
8:35 PM 39.2 °F 33.6 °F 30.2 °F 70% 30.28 in 8.0 mi North 8.1 mph - N/A   Clear
8:55 PM 39.2 °F 34.2 °F 30.2 °F 70% 30.28 in 7.0 mi North 6.9 mph - N/A   Clear
9:15 PM 37.4 °F 33.8 °F 30.2 °F 75% 30.28 in 6.0 mi North 4.6 mph - N/A   Clear
9:35 PM 37.4 °F 33.8 °F 30.2 °F 75% 30.29 in 7.0 mi North 4.6 mph - N/A   Scattered Clouds
9:55 PM 37.4 °F 33.8 °F 30.2 °F 75% 30.29 in 7.0 mi North 4.6 mph - N/A   Scattered Clouds
10:15 PM 37.4 °F 32.8 °F 30.2 °F 75% 30.29 in 7.0 mi North 5.8 mph - N/A   Mostly Cloudy
10:35 PM 37.4 °F 33.8 °F 30.2 °F 75% 30.29 in 7.0 mi North 4.6 mph - N/A   Overcast
10:55 PM 37.4 °F 32.8 °F 30.2 °F 75% 30.28 in 6.0 mi North 5.8 mph - N/A   Overcast
11:15 PM 37.4 °F 32.8 °F 30.2 °F 75% 30.28 in 6.0 mi North 5.8 mph - N/A   Overcast
11:35 PM 37.4 °F 33.8 °F 30.2 °F 75% 30.29 in 5.0 mi North 4.6 mph - N/A   Mostly Cloudy
11:55 PM 37.4 °F 33.8 °F 30.2 °F 75% 30.29 in 5.0 mi North 4.6 mph - N/A   Partly Cloudy